sensor_id;sensor_type;location;lat;lon;timestamp;temperature;humidity
7194;DHT22;3638;48.820;9.244;2022-10-22T00:00:51;14.00;99.90
7194;DHT22;3638;48.820;9.244;2022-10-22T00:03:18;14.00;99.90
7194;DHT22;3638;48.820;9.244;2022-10-22T00:05:46;13.90;99.90
7194;DHT22;3638;48.820;9.244;2022-10-22T00:08:13;13.80;99.90
7194;DHT22;3638;48.820;9.244;2022-10-22T00:10:40;13.80;99.90
7194;DHT22;3638;48.820;9.244;2022-10-22T00:13:09;13.70;99.90
7194;DHT22;3638;48.820;9.244;2022-10-22T00:15:36;13.70;99.90
7194;DHT22;3638;48.820;9.244;2022-10-22T00:18:03;13.70;99.90
7194;DHT22;3638;48.820;9.244;2022-10-22T00:20:31;13.70;99.90
7194;DHT22;3638;48.820;9.244;2022-10-22T00:22:57;13.60;99.90
7194;DHT22;3638;48.820;9.244;2022-10-22T00:25:24;13.60;99.90
7194;DHT22;3638;48.820;9.244;2022-10-22T00:27:51;13.60;99.90
7194;DHT22;3638;48.820;9.244;2022-10-22T00:30:20;13.50;99.90
7194;DHT22;3638;48.820;9.244;2022-10-22T00:32:46;13.50;99.90
7194;DHT22;3638;48.820;9.244;2022-10-22T00:35:13;13.50;99.90
7194;DHT22;3638;48.820;9.244;2022-10-22T00:37:40;13.50;99.90
7194;DHT22;3638;48.820;9.244;2022-10-22T00:40:09;13.40;99.90
7194;DHT22;3638;48.820;9.244;2022-10-22T00:42:36;13.40;99.90
7194;DHT22;3638;48.820;9.244;2022-10-22T00:45:13;13.50;99.90
7194;DHT22;3638;48.820;9.244;2022-10-22T00:47:47;13.60;99.90
7194;DHT22;3638;48.820;9.244;2022-10-22T00:50:19;13.50;99.90
7194;DHT22;3638;48.820;9.244;2022-10-22T00:52:49;13.50;99.90
7194;DHT22;3638;48.820;9.244;2022-10-22T00:55:16;13.50;99.90
7194;DHT22;3638;48.820;9.244;2022-10-22T00:57:44;13.50;99.90
7194;DHT22;3638;48.820;9.244;2022-10-22T01:00:12;13.50;99.90
7194;DHT22;3638;48.820;9.244;2022-10-22T01:02:40;13.60;99.90
7194;DHT22;3638;48.820;9.244;2022-10-22T01:05:09;13.50;99.90
7194;DHT22;3638;48.820;9.244;2022-10-22T01:07:42;13.50;99.90
7194;DHT22;3638;48.820;9.244;2022-10-22T01:10:19;13.50;99.90
7194;DHT22;3638;48.820;9.244;2022-10-22T01:12:56;13.50;99.90
7194;DHT22;3638;48.820;9.244;2022-10-22T01:15:36;12.20;99.90
7194;DHT22;3638;48.820;9.244;2022-10-22T01:18:16;13.50;99.90
7194;DHT22;3638;48.820;9.244;2022-10-22T01:21:01;13.50;99.90
7194;DHT22;3638;48.820;9.244;2022-10-22T01:23:48;13.60;99.90
7194;DHT22;3638;48.820;9.244;2022-10-22T01:26:43;13.60;99.90
7194;DHT22;3638;48.820;9.244;2022-10-22T01:29:24;13.70;99.90
7194;DHT22;3638;48.820;9.244;2022-10-22T01:31:55;13.60;99.90
7194;DHT22;3638;48.820;9.244;2022-10-22T01:34:25;13.60;99.90
7194;DHT22;3638;48.820;9.244;2022-10-22T01:36:54;13.60;99.90
7194;DHT22;3638;48.820;9.244;2022-10-22T01:39:22;13.50;99.90
7194;DHT22;3638;48.820;9.244;2022-10-22T01:41:53;13.50;99.90
7194;DHT22;3638;48.820;9.244;2022-10-22T01:44:26;13.50;99.90
7194;DHT22;3638;48.820;9.244;2022-10-22T01:47:06;13.50;99.90
7194;DHT22;3638;48.820;9.244;2022-10-22T01:49:56;13.50;99.90
7194;DHT22;3638;48.820;9.244;2022-10-22T01:52:45;13.50;99.90
7194;DHT22;3638;48.820;9.244;2022-10-22T01:55:30;13.40;99.90
7194;DHT22;3638;48.820;9.244;2022-10-22T01:58:07;13.50;99.90
7194;DHT22;3638;48.820;9.244;2022-10-22T02:00:48;13.40;99.90
7194;DHT22;3638;48.820;9.244;2022-10-22T02:03:22;13.40;99.90
7194;DHT22;3638;48.820;9.244;2022-10-22T02:05:54;13.40;99.90
7194;DHT22;3638;48.820;9.244;2022-10-22T02:08:26;13.40;99.90
7194;DHT22;3638;48.820;9.244;2022-10-22T02:10:55;13.40;99.90
7194;DHT22;3638;48.820;9.244;2022-10-22T02:13:26;13.40;99.90
7194;DHT22;3638;48.820;9.244;2022-10-22T02:15:56;13.50;99.90
7194;DHT22;3638;48.820;9.244;2022-10-22T02:18:27;13.50;99.90
7194;DHT22;3638;48.820;9.244;2022-10-22T02:20:56;13.50;99.90
7194;DHT22;3638;48.820;9.244;2022-10-22T02:23:24;13.50;99.90
7194;DHT22;3638;48.820;9.244;2022-10-22T02:25:55;13.50;99.90
7194;DHT22;3638;48.820;9.244;2022-10-22T02:28:31;13.50;99.90
7194;DHT22;3638;48.820;9.244;2022-10-22T02:31:07;13.60;99.90
7194;DHT22;3638;48.820;9.244;2022-10-22T02:33:40;13.60;99.90
7194;DHT22;3638;48.820;9.244;2022-10-22T02:36:10;13.70;99.90
7194;DHT22;3638;48.820;9.244;2022-10-22T02:38:39;13.60;99.90
7194;DHT22;3638;48.820;9.244;2022-10-22T02:41:06;13.60;99.90
7194;DHT22;3638;48.820;9.244;2022-10-22T02:43:40;13.60;99.90
7194;DHT22;3638;48.820;9.244;2022-10-22T02:46:09;13.50;99.90
7194;DHT22;3638;48.820;9.244;2022-10-22T02:48:37;13.60;99.90
7194;DHT22;3638;48.820;9.244;2022-10-22T02:51:04;13.70;99.90
7194;DHT22;3638;48.820;9.244;2022-10-22T02:53:31;13.80;99.90
7194;DHT22;3638;48.820;9.244;2022-10-22T02:55:58;13.70;99.90
7194;DHT22;3638;48.820;9.244;2022-10-22T02:58:25;13.80;99.90
7194;DHT22;3638;48.820;9.244;2022-10-22T03:00:52;13.90;99.90
7194;DHT22;3638;48.820;9.244;2022-10-22T03:03:20;13.90;99.90
7194;DHT22;3638;48.820;9.244;2022-10-22T03:05:48;14.00;99.90
7194;DHT22;3638;48.820;9.244;2022-10-22T03:08:15;14.10;99.90
7194;DHT22;3638;48.820;9.244;2022-10-22T03:10:42;14.00;99.90
7194;DHT22;3638;48.820;9.244;2022-10-22T03:13:09;14.00;99.90
7194;DHT22;3638;48.820;9.244;2022-10-22T03:15:36;14.10;99.90
7194;DHT22;3638;48.820;9.244;2022-10-22T03:18:03;14.10;99.90
7194;DHT22;3638;48.820;9.244;2022-10-22T03:20:31;14.10;99.90
7194;DHT22;3638;48.820;9.244;2022-10-22T03:22:59;14.10;99.90
7194;DHT22;3638;48.820;9.244;2022-10-22T03:25:27;14.10;99.90
7194;DHT22;3638;48.820;9.244;2022-10-22T03:28:00;14.10;99.90
7194;DHT22;3638;48.820;9.244;2022-10-22T03:30:29;14.10;99.90
7194;DHT22;3638;48.820;9.244;2022-10-22T03:32:56;14.20;99.90
7194;DHT22;3638;48.820;9.244;2022-10-22T03:35:23;14.10;99.90
7194;DHT22;3638;48.820;9.244;2022-10-22T03:37:52;14.10;99.90
7194;DHT22;3638;48.820;9.244;2022-10-22T03:40:19;14.10;99.90
7194;DHT22;3638;48.820;9.244;2022-10-22T03:42:46;14.20;99.90
7194;DHT22;3638;48.820;9.244;2022-10-22T03:45:13;14.10;99.90
7194;DHT22;3638;48.820;9.244;2022-10-22T03:47:40;14.10;99.90
7194;DHT22;3638;48.820;9.244;2022-10-22T03:50:08;14.10;99.90
7194;DHT22;3638;48.820;9.244;2022-10-22T03:52:36;14.10;99.90
7194;DHT22;3638;48.820;9.244;2022-10-22T03:55:06;14.10;99.90
7194;DHT22;3638;48.820;9.244;2022-10-22T03:57:34;14.10;99.90
7194;DHT22;3638;48.820;9.244;2022-10-22T04:00:04;14.10;99.90
7194;DHT22;3638;48.820;9.244;2022-10-22T04:02:32;14.10;99.90
7194;DHT22;3638;48.820;9.244;2022-10-22T04:04:59;14.00;99.90
7194;DHT22;3638;48.820;9.244;2022-10-22T04:07:26;13.90;99.90
7194;DHT22;3638;48.820;9.244;2022-10-22T04:09:52;13.90;99.90
7194;DHT22;3638;48.820;9.244;2022-10-22T04:12:21;13.90;99.90
7194;DHT22;3638;48.820;9.244;2022-10-22T04:14:47;13.90;99.90
7194;DHT22;3638;48.820;9.244;2022-10-22T04:17:14;13.80;99.90
7194;DHT22;3638;48.820;9.244;2022-10-22T04:19:42;13.90;99.90
7194;DHT22;3638;48.820;9.244;2022-10-22T04:22:08;13.90;99.90
7194;DHT22;3638;48.820;9.244;2022-10-22T04:24:35;13.90;99.90
7194;DHT22;3638;48.820;9.244;2022-10-22T04:27:02;13.80;99.90
7194;DHT22;3638;48.820;9.244;2022-10-22T04:29:31;13.90;99.90
7194;DHT22;3638;48.820;9.244;2022-10-22T04:31:57;13.80;99.90
7194;DHT22;3638;48.820;9.244;2022-10-22T04:34:26;13.80;99.90
7194;DHT22;3638;48.820;9.244;2022-10-22T04:36:53;13.80;99.90
7194;DHT22;3638;48.820;9.244;2022-10-22T04:39:21;13.80;99.90
7194;DHT22;3638;48.820;9.244;2022-10-22T04:41:48;13.70;99.90
7194;DHT22;3638;48.820;9.244;2022-10-22T04:44:14;13.70;99.90
7194;DHT22;3638;48.820;9.244;2022-10-22T04:46:43;13.60;99.90
7194;DHT22;3638;48.820;9.244;2022-10-22T04:49:10;13.60;99.90
7194;DHT22;3638;48.820;9.244;2022-10-22T04:51:37;13.60;99.90
7194;DHT22;3638;48.820;9.244;2022-10-22T04:54:04;13.60;99.90
7194;DHT22;3638;48.820;9.244;2022-10-22T04:56:31;13.60;99.90
7194;DHT22;3638;48.820;9.244;2022-10-22T04:59:00;13.60;99.90
7194;DHT22;3638;48.820;9.244;2022-10-22T05:01:29;13.70;99.90
7194;DHT22;3638;48.820;9.244;2022-10-22T05:03:59;13.70;99.90
7194;DHT22;3638;48.820;9.244;2022-10-22T05:06:28;13.70;99.90
7194;DHT22;3638;48.820;9.244;2022-10-22T05:08:59;13.70;99.90
7194;DHT22;3638;48.820;9.244;2022-10-22T05:11:28;13.60;99.90
7194;DHT22;3638;48.820;9.244;2022-10-22T05:14:00;13.60;99.90
7194;DHT22;3638;48.820;9.244;2022-10-22T05:16:29;13.60;99.90
7194;DHT22;3638;48.820;9.244;2022-10-22T05:18:59;13.60;99.90
7194;DHT22;3638;48.820;9.244;2022-10-22T05:21:27;13.60;99.90
7194;DHT22;3638;48.820;9.244;2022-10-22T05:23:54;13.60;99.90
7194;DHT22;3638;48.820;9.244;2022-10-22T05:26:24;13.70;99.90
7194;DHT22;3638;48.820;9.244;2022-10-22T05:28:52;13.70;99.90
7194;DHT22;3638;48.820;9.244;2022-10-22T05:31:19;13.70;99.90
7194;DHT22;3638;48.820;9.244;2022-10-22T05:33:46;13.70;99.90
7194;DHT22;3638;48.820;9.244;2022-10-22T05:36:16;13.70;99.90
7194;DHT22;3638;48.820;9.244;2022-10-22T05:38:44;13.70;99.90
7194;DHT22;3638;48.820;9.244;2022-10-22T05:41:13;13.90;99.90
7194;DHT22;3638;48.820;9.244;2022-10-22T05:43:41;13.70;99.90
7194;DHT22;3638;48.820;9.244;2022-10-22T05:46:10;13.70;99.90
7194;DHT22;3638;48.820;9.244;2022-10-22T05:48:38;13.70;99.90
7194;DHT22;3638;48.820;9.244;2022-10-22T05:51:07;13.80;99.90
7194;DHT22;3638;48.820;9.244;2022-10-22T05:53:38;13.80;99.90
7194;DHT22;3638;48.820;9.244;2022-10-22T05:56:07;13.90;99.90
7194;DHT22;3638;48.820;9.244;2022-10-22T05:58:36;13.90;99.90
7194;DHT22;3638;48.820;9.244;2022-10-22T06:03:32;14.00;99.90
7194;DHT22;3638;48.820;9.244;2022-10-22T06:06:01;14.10;99.90
7194;DHT22;3638;48.820;9.244;2022-10-22T06:08:30;14.00;99.90
7194;DHT22;3638;48.820;9.244;2022-10-22T06:10:59;14.00;99.90
7194;DHT22;3638;48.820;9.244;2022-10-22T06:13:26;14.00;99.90
7194;DHT22;3638;48.820;9.244;2022-10-22T06:15:53;13.80;99.90
7194;DHT22;3638;48.820;9.244;2022-10-22T06:18:20;13.80;99.90
7194;DHT22;3638;48.820;9.244;2022-10-22T06:20:47;13.90;99.90
7194;DHT22;3638;48.820;9.244;2022-10-22T06:23:14;13.90;99.90
7194;DHT22;3638;48.820;9.244;2022-10-22T06:25:41;13.90;99.90
7194;DHT22;3638;48.820;9.244;2022-10-22T06:28:10;13.90;99.90
7194;DHT22;3638;48.820;9.244;2022-10-22T06:30:37;14.00;99.90
7194;DHT22;3638;48.820;9.244;2022-10-22T06:33:04;13.90;99.90
7194;DHT22;3638;48.820;9.244;2022-10-22T06:35:31;13.90;99.90
7194;DHT22;3638;48.820;9.244;2022-10-22T06:37:58;13.90;99.90
7194;DHT22;3638;48.820;9.244;2022-10-22T06:40:25;13.80;99.90
7194;DHT22;3638;48.820;9.244;2022-10-22T06:42:52;13.80;99.90
7194;DHT22;3638;48.820;9.244;2022-10-22T06:45:20;13.90;99.90
7194;DHT22;3638;48.820;9.244;2022-10-22T06:47:47;14.00;99.90
7194;DHT22;3638;48.820;9.244;2022-10-22T06:50:14;14.10;99.90
7194;DHT22;3638;48.820;9.244;2022-10-22T06:52:41;14.10;99.90
7194;DHT22;3638;48.820;9.244;2022-10-22T06:55:09;14.10;99.90
7194;DHT22;3638;48.820;9.244;2022-10-22T06:57:35;14.20;99.90
7194;DHT22;3638;48.820;9.244;2022-10-22T07:00:03;14.20;99.90
7194;DHT22;3638;48.820;9.244;2022-10-22T07:02:33;14.20;99.90
7194;DHT22;3638;48.820;9.244;2022-10-22T07:05:00;14.20;99.90
7194;DHT22;3638;48.820;9.244;2022-10-22T07:07:26;14.20;99.90
7194;DHT22;3638;48.820;9.244;2022-10-22T07:09:53;14.30;99.90
7194;DHT22;3638;48.820;9.244;2022-10-22T07:12:20;14.40;99.90
7194;DHT22;3638;48.820;9.244;2022-10-22T07:14:48;14.40;99.90
7194;DHT22;3638;48.820;9.244;2022-10-22T07:17:14;14.50;99.90
7194;DHT22;3638;48.820;9.244;2022-10-22T07:19:43;14.60;99.90
7194;DHT22;3638;48.820;9.244;2022-10-22T07:22:10;14.70;99.90
7194;DHT22;3638;48.820;9.244;2022-10-22T07:24:37;14.70;99.90
7194;DHT22;3638;48.820;9.244;2022-10-22T07:27:03;14.60;99.90
7194;DHT22;3638;48.820;9.244;2022-10-22T07:29:30;14.80;99.90
7194;DHT22;3638;48.820;9.244;2022-10-22T07:31:57;14.90;99.90
7194;DHT22;3638;48.820;9.244;2022-10-22T07:34:24;15.10;99.90
7194;DHT22;3638;48.820;9.244;2022-10-22T07:36:52;15.20;99.90
7194;DHT22;3638;48.820;9.244;2022-10-22T07:39:21;15.30;99.90
7194;DHT22;3638;48.820;9.244;2022-10-22T07:41:50;16.60;99.90
7194;DHT22;3638;48.820;9.244;2022-10-22T07:44:17;15.40;99.90
7194;DHT22;3638;48.820;9.244;2022-10-22T07:46:44;15.50;99.90
7194;DHT22;3638;48.820;9.244;2022-10-22T07:49:10;15.50;99.90
7194;DHT22;3638;48.820;9.244;2022-10-22T07:51:37;15.50;99.90
7194;DHT22;3638;48.820;9.244;2022-10-22T07:56:33;15.60;99.90
7194;DHT22;3638;48.820;9.244;2022-10-22T07:59:00;15.40;99.90
7194;DHT22;3638;48.820;9.244;2022-10-22T08:01:27;15.30;99.90
7194;DHT22;3638;48.820;9.244;2022-10-22T08:03:54;15.30;99.90
7194;DHT22;3638;48.820;9.244;2022-10-22T08:06:20;15.40;99.90
7194;DHT22;3638;48.820;9.244;2022-10-22T08:08:47;15.40;99.90
7194;DHT22;3638;48.820;9.244;2022-10-22T08:13:43;15.60;99.90
7194;DHT22;3638;48.820;9.244;2022-10-22T08:16:10;17.20;99.90
7194;DHT22;3638;48.820;9.244;2022-10-22T08:18:37;15.60;99.90
7194;DHT22;3638;48.820;9.244;2022-10-22T08:21:04;15.80;99.90
7194;DHT22;3638;48.820;9.244;2022-10-22T08:23:31;15.80;99.90
7194;DHT22;3638;48.820;9.244;2022-10-22T08:25:58;15.80;99.90
7194;DHT22;3638;48.820;9.244;2022-10-22T08:28:28;15.80;99.90
7194;DHT22;3638;48.820;9.244;2022-10-22T08:30:57;15.90;99.90
7194;DHT22;3638;48.820;9.244;2022-10-22T08:33:24;16.50;99.90
7194;DHT22;3638;48.820;9.244;2022-10-22T08:40:48;16.20;99.90
7194;DHT22;3638;48.820;9.244;2022-10-22T08:43:39;16.10;99.90
7194;DHT22;3638;48.820;9.244;2022-10-22T08:46:19;16.40;99.90
7194;DHT22;3638;48.820;9.244;2022-10-22T08:48:53;16.40;99.90
7194;DHT22;3638;48.820;9.244;2022-10-22T08:51:25;16.50;99.90
7194;DHT22;3638;48.820;9.244;2022-10-22T08:54:13;16.50;99.90
7194;DHT22;3638;48.820;9.244;2022-10-22T08:56:44;16.60;99.90
7194;DHT22;3638;48.820;9.244;2022-10-22T08:59:22;16.60;99.90
7194;DHT22;3638;48.820;9.244;2022-10-22T09:01:53;16.50;99.90
7194;DHT22;3638;48.820;9.244;2022-10-22T09:04:23;16.50;99.90
7194;DHT22;3638;48.820;9.244;2022-10-22T09:06:53;16.50;99.90
7194;DHT22;3638;48.820;9.244;2022-10-22T09:09:24;16.70;99.90
7194;DHT22;3638;48.820;9.244;2022-10-22T09:12:05;16.70;99.90
7194;DHT22;3638;48.820;9.244;2022-10-22T09:14:37;16.70;99.90
7194;DHT22;3638;48.820;9.244;2022-10-22T09:17:12;16.80;99.90
7194;DHT22;3638;48.820;9.244;2022-10-22T09:19:51;16.90;99.90
7194;DHT22;3638;48.820;9.244;2022-10-22T09:22:32;16.90;99.90
7194;DHT22;3638;48.820;9.244;2022-10-22T09:25:13;17.00;99.90
7194;DHT22;3638;48.820;9.244;2022-10-22T09:27:44;17.10;99.90
7194;DHT22;3638;48.820;9.244;2022-10-22T09:30:16;17.30;99.90
7194;DHT22;3638;48.820;9.244;2022-10-22T09:32:44;17.30;99.90
7194;DHT22;3638;48.820;9.244;2022-10-22T09:35:12;17.50;99.90
7194;DHT22;3638;48.820;9.244;2022-10-22T09:37:47;17.50;99.90
7194;DHT22;3638;48.820;9.244;2022-10-22T09:40:17;17.50;99.90
7194;DHT22;3638;48.820;9.244;2022-10-22T09:42:45;17.60;99.90
7194;DHT22;3638;48.820;9.244;2022-10-22T09:45:18;17.80;99.90
7194;DHT22;3638;48.820;9.244;2022-10-22T09:47:47;17.70;99.90
7194;DHT22;3638;48.820;9.244;2022-10-22T09:50:25;17.80;99.90
7194;DHT22;3638;48.820;9.244;2022-10-22T09:52:58;18.00;99.90
7194;DHT22;3638;48.820;9.244;2022-10-22T09:55:27;18.00;99.90
7194;DHT22;3638;48.820;9.244;2022-10-22T09:57:56;17.90;99.90
7194;DHT22;3638;48.820;9.244;2022-10-22T10:00:26;17.90;99.90
7194;DHT22;3638;48.820;9.244;2022-10-22T10:02:55;17.90;99.90
7194;DHT22;3638;48.820;9.244;2022-10-22T10:05:30;18.00;99.90
7194;DHT22;3638;48.820;9.244;2022-10-22T10:07:58;18.10;99.90
7194;DHT22;3638;48.820;9.244;2022-10-22T10:10:33;18.20;99.90
7194;DHT22;3638;48.820;9.244;2022-10-22T10:16:01;18.30;99.90
7194;DHT22;3638;48.820;9.244;2022-10-22T10:18:42;18.30;99.90
7194;DHT22;3638;48.820;9.244;2022-10-22T10:21:23;18.30;99.90
7194;DHT22;3638;48.820;9.244;2022-10-22T10:23:57;18.30;99.90
7194;DHT22;3638;48.820;9.244;2022-10-22T10:26:32;18.40;99.90
7194;DHT22;3638;48.820;9.244;2022-10-22T10:29:13;18.50;99.90
7194;DHT22;3638;48.820;9.244;2022-10-22T10:31:58;18.60;99.90
7194;DHT22;3638;48.820;9.244;2022-10-22T10:34:45;18.70;99.90
7194;DHT22;3638;48.820;9.244;2022-10-22T10:37:20;18.70;99.90
7194;DHT22;3638;48.820;9.244;2022-10-22T10:40:17;18.80;99.90
7194;DHT22;3638;48.820;9.244;2022-10-22T10:42:54;18.80;99.90
7194;DHT22;3638;48.820;9.244;2022-10-22T10:45:29;18.80;99.90
7194;DHT22;3638;48.820;9.244;2022-10-22T10:48:11;18.80;99.90
7194;DHT22;3638;48.820;9.244;2022-10-22T10:50:55;18.80;99.90
7194;DHT22;3638;48.820;9.244;2022-10-22T10:53:40;18.70;99.90
7194;DHT22;3638;48.820;9.244;2022-10-22T10:56:27;19.00;99.90
7194;DHT22;3638;48.820;9.244;2022-10-22T10:59:11;19.10;99.90
7194;DHT22;3638;48.820;9.244;2022-10-22T11:01:50;19.20;99.90
7194;DHT22;3638;48.820;9.244;2022-10-22T11:04:40;19.30;99.90
7194;DHT22;3638;48.820;9.244;2022-10-22T11:07:18;19.40;99.90
7194;DHT22;3638;48.820;9.244;2022-10-22T11:09:53;19.40;99.90
7194;DHT22;3638;48.820;9.244;2022-10-22T11:12:27;19.40;99.90
7194;DHT22;3638;48.820;9.244;2022-10-22T11:15:00;19.40;99.90
7194;DHT22;3638;48.820;9.244;2022-10-22T11:17:36;19.40;99.90
7194;DHT22;3638;48.820;9.244;2022-10-22T11:20:15;19.30;99.90
7194;DHT22;3638;48.820;9.244;2022-10-22T11:22:47;19.40;99.90
7194;DHT22;3638;48.820;9.244;2022-10-22T11:25:18;19.30;99.90
7194;DHT22;3638;48.820;9.244;2022-10-22T11:27:50;19.30;99.90
7194;DHT22;3638;48.820;9.244;2022-10-22T11:30:21;19.40;99.90
7194;DHT22;3638;48.820;9.244;2022-10-22T11:32:52;19.30;99.90
7194;DHT22;3638;48.820;9.244;2022-10-22T11:35:25;19.30;99.90
7194;DHT22;3638;48.820;9.244;2022-10-22T11:37:54;19.20;99.90
7194;DHT22;3638;48.820;9.244;2022-10-22T11:40:31;19.20;99.90
7194;DHT22;3638;48.820;9.244;2022-10-22T11:43:04;19.30;99.90
7194;DHT22;3638;48.820;9.244;2022-10-22T11:45:34;19.30;99.90
7194;DHT22;3638;48.820;9.244;2022-10-22T11:48:15;19.40;99.90
7194;DHT22;3638;48.820;9.244;2022-10-22T11:50:47;19.40;99.90
7194;DHT22;3638;48.820;9.244;2022-10-22T11:53:20;19.40;99.90
7194;DHT22;3638;48.820;9.244;2022-10-22T11:55:56;19.40;99.90
7194;DHT22;3638;48.820;9.244;2022-10-22T11:58:30;19.40;99.90
7194;DHT22;3638;48.820;9.244;2022-10-22T12:01:20;19.50;99.90
7194;DHT22;3638;48.820;9.244;2022-10-22T12:04:13;19.50;99.90
7194;DHT22;3638;48.820;9.244;2022-10-22T12:07:01;19.60;99.90
7194;DHT22;3638;48.820;9.244;2022-10-22T12:09:30;19.60;99.90
7194;DHT22;3638;48.820;9.244;2022-10-22T12:12:12;19.60;99.90
7194;DHT22;3638;48.820;9.244;2022-10-22T12:14:52;19.60;99.90
7194;DHT22;3638;48.820;9.244;2022-10-22T12:17:21;19.60;99.90
7194;DHT22;3638;48.820;9.244;2022-10-22T12:19:54;19.60;99.90
7194;DHT22;3638;48.820;9.244;2022-10-22T12:22:28;19.70;99.90
7194;DHT22;3638;48.820;9.244;2022-10-22T12:24:59;19.70;99.90
7194;DHT22;3638;48.820;9.244;2022-10-22T12:27:34;19.70;99.90
7194;DHT22;3638;48.820;9.244;2022-10-22T12:30:16;19.80;99.90
7194;DHT22;3638;48.820;9.244;2022-10-22T12:32:46;19.80;99.90
7194;DHT22;3638;48.820;9.244;2022-10-22T12:35:16;19.70;99.90
7194;DHT22;3638;48.820;9.244;2022-10-22T12:37:48;19.70;99.90
7194;DHT22;3638;48.820;9.244;2022-10-22T12:40:18;19.90;99.90
7194;DHT22;3638;48.820;9.244;2022-10-22T12:42:48;19.90;99.90
7194;DHT22;3638;48.820;9.244;2022-10-22T12:45:16;19.80;99.90
7194;DHT22;3638;48.820;9.244;2022-10-22T12:47:46;19.70;99.90
7194;DHT22;3638;48.820;9.244;2022-10-22T12:50:17;19.70;99.90
7194;DHT22;3638;48.820;9.244;2022-10-22T12:52:47;19.70;99.90
7194;DHT22;3638;48.820;9.244;2022-10-22T12:55:15;19.70;99.90
7194;DHT22;3638;48.820;9.244;2022-10-22T12:57:46;19.70;99.90
7194;DHT22;3638;48.820;9.244;2022-10-22T13:00:22;19.80;99.90
7194;DHT22;3638;48.820;9.244;2022-10-22T13:02:50;19.80;99.90
7194;DHT22;3638;48.820;9.244;2022-10-22T13:05:22;19.70;99.90
7194;DHT22;3638;48.820;9.244;2022-10-22T13:08:00;19.60;99.90
7194;DHT22;3638;48.820;9.244;2022-10-22T13:10:32;19.50;99.90
7194;DHT22;3638;48.820;9.244;2022-10-22T13:12:59;19.40;99.90
7194;DHT22;3638;48.820;9.244;2022-10-22T13:15:36;19.30;99.90
7194;DHT22;3638;48.820;9.244;2022-10-22T13:18:14;19.30;99.90
7194;DHT22;3638;48.820;9.244;2022-10-22T13:20:53;19.20;99.90
7194;DHT22;3638;48.820;9.244;2022-10-22T13:23:26;19.10;99.90
7194;DHT22;3638;48.820;9.244;2022-10-22T13:25:59;19.10;99.90
7194;DHT22;3638;48.820;9.244;2022-10-22T13:28:27;19.00;99.90
7194;DHT22;3638;48.820;9.244;2022-10-22T13:30:57;19.00;99.90
7194;DHT22;3638;48.820;9.244;2022-10-22T13:33:29;19.10;99.90
7194;DHT22;3638;48.820;9.244;2022-10-22T13:35:58;19.10;99.90
7194;DHT22;3638;48.820;9.244;2022-10-22T13:38:27;19.20;99.90
7194;DHT22;3638;48.820;9.244;2022-10-22T13:40:55;19.40;99.90
7194;DHT22;3638;48.820;9.244;2022-10-22T13:43:23;19.50;99.90
7194;DHT22;3638;48.820;9.244;2022-10-22T13:45:53;19.50;99.90
7194;DHT22;3638;48.820;9.244;2022-10-22T13:48:22;19.70;99.90
7194;DHT22;3638;48.820;9.244;2022-10-22T13:50:51;19.80;99.90
7194;DHT22;3638;48.820;9.244;2022-10-22T13:53:21;19.60;99.90
7194;DHT22;3638;48.820;9.244;2022-10-22T13:55:51;19.60;99.90
7194;DHT22;3638;48.820;9.244;2022-10-22T13:58:20;19.70;99.90
7194;DHT22;3638;48.820;9.244;2022-10-22T14:00:51;19.70;99.90
7194;DHT22;3638;48.820;9.244;2022-10-22T14:03:22;19.70;99.90
7194;DHT22;3638;48.820;9.244;2022-10-22T14:05:51;19.70;99.90
7194;DHT22;3638;48.820;9.244;2022-10-22T14:08:19;19.60;99.90
7194;DHT22;3638;48.820;9.244;2022-10-22T14:10:47;19.60;99.90
7194;DHT22;3638;48.820;9.244;2022-10-22T14:13:17;19.50;99.90
7194;DHT22;3638;48.820;9.244;2022-10-22T14:15:45;19.40;99.90
7194;DHT22;3638;48.820;9.244;2022-10-22T14:18:17;19.40;99.90
7194;DHT22;3638;48.820;9.244;2022-10-22T14:20:51;19.50;99.90
7194;DHT22;3638;48.820;9.244;2022-10-22T14:23:21;19.50;99.90
7194;DHT22;3638;48.820;9.244;2022-10-22T14:25:50;19.50;99.90
7194;DHT22;3638;48.820;9.244;2022-10-22T14:28:18;19.50;99.90
7194;DHT22;3638;48.820;9.244;2022-10-22T14:30:45;19.60;99.90
7194;DHT22;3638;48.820;9.244;2022-10-22T14:33:14;19.60;99.90
7194;DHT22;3638;48.820;9.244;2022-10-22T14:35:44;19.60;99.90
7194;DHT22;3638;48.820;9.244;2022-10-22T14:38:11;19.60;99.90
7194;DHT22;3638;48.820;9.244;2022-10-22T14:40:38;19.60;99.90
7194;DHT22;3638;48.820;9.244;2022-10-22T14:43:09;19.60;99.90
7194;DHT22;3638;48.820;9.244;2022-10-22T14:48:06;19.60;99.90
7194;DHT22;3638;48.820;9.244;2022-10-22T14:50:33;19.50;99.90
7194;DHT22;3638;48.820;9.244;2022-10-22T14:53:00;19.50;99.90
7194;DHT22;3638;48.820;9.244;2022-10-22T14:55:27;19.50;99.90
7194;DHT22;3638;48.820;9.244;2022-10-22T14:57:54;19.40;99.90
7194;DHT22;3638;48.820;9.244;2022-10-22T15:00:22;19.40;99.90
7194;DHT22;3638;48.820;9.244;2022-10-22T15:02:49;19.40;99.90
7194;DHT22;3638;48.820;9.244;2022-10-22T15:05:17;19.40;99.90
7194;DHT22;3638;48.820;9.244;2022-10-22T15:07:44;19.50;99.90
7194;DHT22;3638;48.820;9.244;2022-10-22T15:10:12;19.40;99.90
7194;DHT22;3638;48.820;9.244;2022-10-22T15:12:39;19.40;99.90
7194;DHT22;3638;48.820;9.244;2022-10-22T15:15:06;19.30;99.90
7194;DHT22;3638;48.820;9.244;2022-10-22T15:17:34;19.20;99.90
7194;DHT22;3638;48.820;9.244;2022-10-22T15:20:00;19.20;99.90
7194;DHT22;3638;48.820;9.244;2022-10-22T15:22:31;19.00;99.90
7194;DHT22;3638;48.820;9.244;2022-10-22T15:25:00;19.00;99.90
7194;DHT22;3638;48.820;9.244;2022-10-22T15:27:27;18.90;99.90
7194;DHT22;3638;48.820;9.244;2022-10-22T15:29:55;18.80;99.90
7194;DHT22;3638;48.820;9.244;2022-10-22T15:32:23;18.80;99.90
7194;DHT22;3638;48.820;9.244;2022-10-22T15:34:52;18.80;99.90
7194;DHT22;3638;48.820;9.244;2022-10-22T15:37:20;18.80;99.90
7194;DHT22;3638;48.820;9.244;2022-10-22T15:39:49;18.70;99.90
7194;DHT22;3638;48.820;9.244;2022-10-22T15:42:16;18.70;99.90
7194;DHT22;3638;48.820;9.244;2022-10-22T15:44:44;18.60;99.90
7194;DHT22;3638;48.820;9.244;2022-10-22T15:47:11;18.60;99.90
7194;DHT22;3638;48.820;9.244;2022-10-22T15:49:38;18.50;99.90
7194;DHT22;3638;48.820;9.244;2022-10-22T15:52:06;18.40;99.90
7194;DHT22;3638;48.820;9.244;2022-10-22T15:54:34;18.40;99.90
7194;DHT22;3638;48.820;9.244;2022-10-22T15:57:02;18.20;99.90
7194;DHT22;3638;48.820;9.244;2022-10-22T15:59:33;18.20;99.90
7194;DHT22;3638;48.820;9.244;2022-10-22T16:02:00;18.00;99.90
7194;DHT22;3638;48.820;9.244;2022-10-22T16:04:27;17.90;99.90
7194;DHT22;3638;48.820;9.244;2022-10-22T16:06:54;17.80;99.90
7194;DHT22;3638;48.820;9.244;2022-10-22T16:09:24;17.70;99.90
7194;DHT22;3638;48.820;9.244;2022-10-22T16:11:53;17.60;99.90
7194;DHT22;3638;48.820;9.244;2022-10-22T16:14:22;17.60;99.90
7194;DHT22;3638;48.820;9.244;2022-10-22T16:16:51;17.50;99.90
7194;DHT22;3638;48.820;9.244;2022-10-22T16:19:21;17.40;99.90
7194;DHT22;3638;48.820;9.244;2022-10-22T16:21:51;17.30;99.90
7194;DHT22;3638;48.820;9.244;2022-10-22T16:24:20;17.20;99.90
7194;DHT22;3638;48.820;9.244;2022-10-22T16:26:47;17.10;99.90
7194;DHT22;3638;48.820;9.244;2022-10-22T16:29:14;17.00;99.90
7194;DHT22;3638;48.820;9.244;2022-10-22T16:31:43;16.90;99.90
7194;DHT22;3638;48.820;9.244;2022-10-22T16:34:10;16.80;99.90
7194;DHT22;3638;48.820;9.244;2022-10-22T16:36:37;16.80;99.90
7194;DHT22;3638;48.820;9.244;2022-10-22T16:39:04;16.70;99.90
7194;DHT22;3638;48.820;9.244;2022-10-22T16:41:32;16.60;99.90